Time;durP1;ratioP1;P1;durP2;ratioP2;P2;SDS_P1;SDS_P2;PMS_P1;PMS_P2;Temp;Humidity;BMP_temperature;BMP_pressure;BME280_temperature;BME280_humidity;BME280_pressure;Samples;Min_cycle;Max_cycle;Signal;HPM_P1;HPM_P2
2022/08/29 00:01:03;;;;;;;38.03;21.55;;;;;;;19.67;98.76;92737.06;5031166;28;20116;-74
2022/08/29 00:03:29;;;;;;;47.58;22.30;;;;;;;19.65;97.86;92740.03;5030267;28;20067;-74
2022/08/29 00:05:55;;;;;;;38.30;20.73;;;;;;;19.65;97.65;92744.56;5029370;28;20025;-74
2022/08/29 00:08:21;;;;;;;40.92;21.00;;;;;;;19.66;97.66;92740.84;5046569;28;20037;-74
2022/08/29 00:10:46;;;;;;;38.33;21.70;;;;;;;19.65;97.42;92740.03;5030244;28;20069;-74
2022/08/29 00:13:13;;;;;;;40.03;22.85;;;;;;;19.65;96.96;92739.25;5013345;28;20132;-74
2022/08/29 00:15:41;;;;;;;42.67;22.90;;;;;;;19.63;96.77;92733.50;5026040;28;20514;-74
2022/08/29 00:18:06;;;;;;;36.88;21.17;;;;;;;19.61;96.64;92733.88;5011391;28;20121;-74
2022/08/29 00:20:34;;;;;;;39.50;22.33;;;;;;;19.57;96.88;92738.31;5029670;28;20533;-74
2022/08/29 00:23:03;;;;;;;38.88;22.00;;;;;;;19.56;97.51;92742.06;5026097;28;20036;-73
2022/08/29 00:25:30;;;;;;;40.80;22.20;;;;;;;19.53;96.98;92742.72;5030626;28;20037;-74
2022/08/29 00:27:56;;;;;;;41.70;23.05;;;;;;;19.49;96.73;92753.22;5030483;28;20427;-74
2022/08/29 00:30:23;;;;;;;47.58;24.40;;;;;;;19.45;96.81;92749.69;5029487;28;20109;-74
2022/08/29 00:32:50;;;;;;;45.75;23.25;;;;;;;19.40;97.13;92747.28;5033051;28;20037;-74
2022/08/29 00:35:23;;;;;;;46.78;24.10;;;;;;;19.38;97.01;92757.44;5034335;28;20070;-74
2022/08/29 00:37:53;;;;;;;43.97;23.77;;;;;;;19.33;98.20;92765.66;5033982;28;20057;-74
2022/08/29 00:40:27;;;;;;;51.05;25.45;;;;;;;19.29;97.92;92757.56;5033475;28;20102;-74
2022/08/29 00:42:53;;;;;;;51.60;26.38;;;;;;;19.28;98.00;92760.56;5014511;28;20042;-74
2022/08/29 00:45:19;;;;;;;55.78;26.20;;;;;;;19.28;98.26;92761.34;5032944;28;20043;-74
2022/08/29 00:47:51;;;;;;;63.63;28.90;;;;;;;19.25;98.55;92764.69;5033936;28;20483;-73
2022/08/29 00:50:26;;;;;;;;;;;;;;;19.25;97.79;92769.97;5034854;28;20072;-74
2022/08/29 00:52:53;;;;;;;71.50;29.00;;;;;;;19.25;98.56;92762.03;5049939;28;19917;-74
2022/08/29 00:55:22;;;;;;;54.60;25.88;;;;;;;19.26;99.60;92762.78;5034551;28;20456;-74
2022/08/29 00:57:55;;;;;;;48.67;26.20;;;;;;;19.28;100.00;92763.22;5032901;28;20083;-74
2022/08/29 01:00:22;;;;;;;53.45;26.98;;;;;;;19.25;99.16;92764.69;5032182;28;20046;-74
2022/08/29 01:02:47;;;;;;;54.53;27.33;;;;;;;19.24;99.39;92770.31;5032028;28;20033;-74
2022/08/29 01:05:16;;;;;;;66.35;30.50;;;;;;;19.22;100.00;92775.94;5033013;28;20024;-73
2022/08/29 01:07:42;;;;;;;68.07;28.52;;;;;;;19.23;100.00;92776.69;5032852;28;20095;-74
2022/08/29 01:10:08;;;;;;;56.03;28.23;;;;;;;19.22;99.85;92777.81;5033104;28;20038;-74
2022/08/29 01:12:34;;;;;;;57.20;29.83;;;;;;;19.23;99.62;92782.00;5033303;28;20116;-74
2022/08/29 01:15:05;;;;;;;69.78;30.50;;;;;;;19.21;99.13;92782.38;5032839;28;20041;-74
2022/08/29 01:17:43;;;;;;;67.50;31.17;;;;;;;19.20;98.91;92786.09;5034081;28;20046;-74
2022/08/29 01:20:35;;;;;;;79.13;35.28;;;;;;;19.19;98.24;92781.91;5032848;28;20463;-74
2022/08/29 01:23:42;;;;;;;77.22;32.58;;;;;;;19.16;97.30;92782.56;5016006;28;20437;-74
2022/08/29 01:26:10;;;;;;;83.22;35.15;;;;;;;19.16;97.26;92777.25;4975503;28;20522;-74
2022/08/29 01:28:41;;;;;;;82.65;36.25;;;;;;;19.14;97.02;92780.25;5006897;28;20408;-74
2022/08/29 01:31:14;;;;;;;98.63;40.08;;;;;;;19.13;96.73;92776.03;5033645;28;20542;-74
2022/08/29 01:33:42;;;;;;;94.82;40.28;;;;;;;19.11;96.75;92782.78;5034047;28;20033;-73
2022/08/29 01:36:11;;;;;;;93.43;38.85;;;;;;;19.08;96.54;92780.81;5032487;28;20017;-74
2022/08/29 01:38:38;;;;;;;96.13;39.97;;;;;;;19.05;97.30;92774.28;5035794;28;20034;-74
2022/08/29 01:41:04;;;;;;;98.85;38.53;;;;;;;19.02;98.77;92776.81;5044335;28;20033;-74
2022/08/29 01:43:31;;;;;;;95.47;38.72;;;;;;;18.97;97.85;92774.41;5012787;28;20056;-74
2022/08/29 01:45:57;;;;;;;80.97;36.03;;;;;;;18.95;97.58;92771.28;5013680;28;20104;-74
2022/08/29 01:48:23;;;;;;;84.07;36.78;;;;;;;18.90;98.07;92777.59;5022511;28;20292;-74
2022/08/29 01:50:49;;;;;;;87.70;37.70;;;;;;;18.85;98.35;92778.59;5032282;28;20041;-74
2022/08/29 01:53:15;;;;;;;93.18;37.20;;;;;;;18.80;97.60;92781.47;5033549;28;20116;-74
2022/08/29 01:55:41;;;;;;;96.05;38.13;;;;;;;18.77;98.11;92781.31;5032408;28;20502;-75
2022/08/29 01:58:07;;;;;;;87.35;35.30;;;;;;;18.76;97.53;92780.53;5032043;28;20040;-74
2022/08/29 02:00:34;;;;;;;96.95;38.45;;;;;;;18.74;99.30;92777.44;4998978;28;20037;-73
2022/08/29 02:03:02;;;;;;;101.38;41.47;;;;;;;18.73;100.00;92779.31;5033128;28;20180;-74
2022/08/29 02:05:28;;;;;;;101.13;38.90;;;;;;;18.76;100.00;92779.78;5032304;28;20506;-74
2022/08/29 02:07:55;;;;;;;97.93;39.22;;;;;;;18.77;100.00;92779.44;5031947;28;20379;-74
2022/08/29 02:10:22;;;;;;;90.68;38.42;;;;;;;18.81;100.00;92787.53;5031020;28;20124;-74
2022/08/29 02:12:48;;;;;;;84.10;36.83;;;;;;;18.81;100.00;92783.00;5033091;28;20483;-74
2022/08/29 02:15:14;;;;;;;79.95;35.20;;;;;;;18.78;100.00;92786.31;5031507;28;20042;-73
2022/08/29 02:17:40;;;;;;;80.30;34.83;;;;;;;18.78;100.00;92785.53;5032793;28;20522;-74
2022/08/29 02:20:07;;;;;;;79.85;36.55;;;;;;;18.76;100.00;92780.53;5013670;28;20038;-74
2022/08/29 02:22:35;;;;;;;82.57;36.03;;;;;;;18.75;100.00;92773.66;5032460;28;20037;-74
2022/08/29 02:25:01;;;;;;;76.97;35.95;;;;;;;18.76;100.00;92777.88;5028748;28;20395;-74
2022/08/29 02:27:27;;;;;;;80.80;34.08;;;;;;;18.79;100.00;92771.94;5027382;28;20095;-74
2022/08/29 02:29:52;;;;;;;82.18;34.53;;;;;;;18.79;100.00;92779.13;5031952;28;20110;-74
2022/08/29 02:32:18;;;;;;;86.97;35.83;;;;;;;18.76;100.00;92764.63;5031076;28;20116;-74
2022/08/29 02:34:44;;;;;;;83.88;34.28;;;;;;;18.75;100.00;92757.75;5031963;28;20453;-74
2022/08/29 02:37:11;;;;;;;94.70;36.92;;;;;;;18.74;100.00;92756.22;5047880;28;20040;-74
2022/08/29 02:39:37;;;;;;;95.13;38.33;;;;;;;18.72;100.00;92750.47;5031806;28;20514;-74
2022/08/29 02:42:03;;;;;;;88.00;36.78;;;;;;;18.71;100.00;92746.25;5031147;28;20042;-74
2022/08/29 02:44:29;;;;;;;94.35;35.83;;;;;;;18.69;100.00;92749.25;5031777;28;20033;-74
2022/08/29 02:46:55;;;;;;;86.20;34.30;;;;;;;18.66;100.00;92744.59;5032410;28;20030;-74
2022/08/29 02:49:21;;;;;;;93.35;36.50;;;;;;;18.62;100.00;92757.00;5032694;28;20060;-74
2022/08/29 02:51:46;;;;;;;89.22;35.28;;;;;;;18.58;100.00;92753.44;5030376;28;20041;-73
2022/08/29 02:54:12;;;;;;;79.38;32.78;;;;;;;18.54;100.00;92749.91;5029225;28;20030;-74
2022/08/29 02:56:38;;;;;;;80.68;34.97;;;;;;;18.54;99.85;92749.13;5030910;28;20064;-74
2022/08/29 02:59:07;;;;;;;83.93;36.00;;;;;;;18.50;99.47;92747.13;5032175;28;20419;-74
2022/08/29 03:01:33;;;;;;;83.07;34.60;;;;;;;18.48;99.98;92749.31;5030056;28;20029;-74
2022/08/29 03:03:58;;;;;;;78.63;34.75;;;;;;;18.43;100.00;92746.13;5045462;28;20048;-74
2022/08/29 03:06:24;;;;;;;79.38;36.05;;;;;;;18.39;100.00;92751.28;5030660;28;20510;-74
2022/08/29 03:08:50;;;;;;;87.72;35.17;;;;;;;18.33;100.00;92746.53;5031701;28;20060;-74
2022/08/29 03:11:16;;;;;;;83.43;34.92;;;;;;;18.27;100.00;92749.38;5031385;28;20072;-74
2022/08/29 03:13:45;;;;;;;85.97;35.92;;;;;;;18.22;100.00;92751.47;5030924;28;20499;-74
2022/08/29 03:16:11;;;;;;;81.53;35.15;;;;;;;18.21;100.00;92742.75;5031640;28;20091;-74
2022/08/29 03:18:36;;;;;;;89.35;36.55;;;;;;;18.21;100.00;92740.09;5032163;28;20722;-74
2022/08/29 03:21:02;;;;;;;89.53;38.15;;;;;;;18.19;100.00;92746.81;5013299;28;20072;-73
2022/08/29 03:23:28;;;;;;;95.25;39.13;;;;;;;18.18;100.00;92738.09;5030631;28;20061;-74
2022/08/29 03:25:54;;;;;;;80.10;36.53;;;;;;;18.18;100.00;92742.63;5028975;28;20487;-74
2022/08/29 03:28:20;;;;;;;86.10;37.45;;;;;;;18.19;100.00;92741.53;5031708;28;20045;-74
2022/08/29 03:30:47;;;;;;;89.95;36.83;;;;;;;18.11;100.00;92737.88;5029677;28;20075;-74
2022/08/29 03:33:12;;;;;;;89.97;37.03;;;;;;;18.07;100.00;92732.44;5030395;28;20029;-74
2022/08/29 03:35:38;;;;;;;99.20;37.95;;;;;;;18.03;100.00;92744.78;5030232;28;20407;-74
2022/08/29 03:38:04;;;;;;;82.75;36.42;;;;;;;17.99;100.00;92745.75;5031494;28;20087;-74
2022/08/29 03:40:29;;;;;;;85.57;34.55;;;;;;;17.95;100.00;92748.28;5029664;28;20037;-74
2022/08/29 03:42:55;;;;;;;82.53;35.50;;;;;;;17.93;100.00;92747.06;5030482;28;20446;-74
2022/08/29 03:45:22;;;;;;;85.68;37.10;;;;;;;17.92;100.00;92746.28;5031051;28;20549;-74
2022/08/29 03:47:50;;;;;;;84.93;35.30;;;;;;;17.91;100.00;92757.97;5030024;28;20067;-74
2022/08/29 03:50:18;;;;;;;83.20;33.53;;;;;;;17.89;100.00;92757.53;5031260;28;20044;-74
2022/08/29 03:52:45;;;;;;;73.95;32.83;;;;;;;17.87;100.00;92757.06;5013438;28;20509;-74
2022/08/29 03:55:12;;;;;;;71.88;31.92;;;;;;;17.84;100.00;92755.09;5029829;28;20044;-74
2022/08/29 03:57:37;;;;;;;72.15;32.97;;;;;;;17.83;100.00;92761.47;5013247;28;20029;-74
2022/08/29 04:00:09;;;;;;;81.13;34.05;;;;;;;17.81;100.00;92759.16;5026733;28;20030;-74
2022/08/29 04:02:38;;;;;;;73.45;33.60;;;;;;;17.76;100.00;92751.38;5029009;28;20037;-74
2022/08/29 04:05:07;;;;;;;72.85;33.55;;;;;;;17.74;100.00;92752.78;4997181;28;20029;-74
2022/08/29 04:07:55;;;;;;;80.60;32.42;;;;;;;17.69;100.00;92754.53;5045596;28;20028;-73
2022/08/29 04:10:30;;;;;;;69.07;32.22;;;;;;;17.69;100.00;92761.69;5037857;28;20033;-74
2022/08/29 04:12:56;;;;;;;67.68;31.58;;;;;;;17.67;100.00;92771.84;5030685;28;20040;-74
2022/08/29 04:15:24;;;;;;;70.93;32.88;;;;;;;17.65;100.00;92760.78;5031227;28;20049;-74
2022/08/29 04:17:53;;;;;;;70.07;32.45;;;;;;;17.63;100.00;92761.13;5031392;28;20121;-74
2022/08/29 04:20:21;;;;;;;61.28;30.58;;;;;;;17.62;100.00;92767.50;5012784;28;20045;-74
2022/08/29 04:22:47;;;;;;;66.75;32.25;;;;;;;17.62;100.00;92769.38;5012939;28;20461;-74
2022/08/29 04:25:13;;;;;;;63.17;29.85;;;;;;;17.59;100.00;92770.81;5031065;28;20041;-74
2022/08/29 04:27:40;;;;;;;61.05;31.10;;;;;;;17.58;100.00;92773.78;5028531;28;20068;-74
2022/08/29 04:30:13;;;;;;;61.88;31.30;;;;;;;17.58;100.00;92771.91;5030296;28;20040;-73
2022/08/29 04:32:39;;;;;;;59.95;29.55;;;;;;;17.56;100.00;92773.31;5042172;28;20025;-74
2022/08/29 04:35:06;;;;;;;58.58;29.63;;;;;;;17.58;100.00;92766.59;5049845;28;20387;-74
2022/08/29 04:37:31;;;;;;;57.50;30.33;;;;;;;17.55;100.00;92769.91;5050798;28;20509;-72
2022/08/29 04:39:57;;;;;;;60.00;29.73;;;;;;;17.56;100.00;92768.81;5050392;28;20045;-73
2022/08/29 04:42:23;;;;;;;55.85;30.35;;;;;;;17.56;100.00;92774.13;5032943;28;20124;-76
2022/08/29 04:44:49;;;;;;;59.28;29.15;;;;;;;17.55;100.00;92775.19;5033072;28;20560;-75
2022/08/29 04:47:15;;;;;;;51.40;25.90;;;;;;;17.54;100.00;92778.94;5049541;28;20048;-75
2022/08/29 04:49:41;;;;;;;45.17;23.85;;;;;;;17.51;100.00;92776.94;5049425;28;20041;-75
2022/08/29 04:52:08;;;;;;;42.97;21.73;;;;;;;17.52;100.00;92777.69;5033063;28;20375;-75
2022/08/29 04:54:33;;;;;;;36.90;21.77;;;;;;;17.52;100.00;92785.63;5051102;28;20414;-75
2022/08/29 04:57:02;;;;;;;38.80;22.60;;;;;;;17.53;100.00;92784.56;5032890;28;20108;-75
2022/08/29 04:59:28;;;;;;;42.00;22.90;;;;;;;17.52;100.00;92777.69;5033167;28;20029;-75
2022/08/29 05:01:53;;;;;;;38.90;20.33;;;;;;;17.55;100.00;92788.44;5041781;28;20505;-77
2022/08/29 05:04:19;;;;;;;32.25;19.48;;;;;;;17.53;100.00;92779.25;5051575;28;20434;-75
2022/08/29 05:06:44;;;;;;;34.65;19.13;;;;;;;17.51;100.00;92786.75;5050678;28;20068;-76
2022/08/29 05:09:10;;;;;;;37.03;20.23;;;;;;;17.53;100.00;92787.97;5049668;28;20090;-76
2022/08/29 05:11:36;;;;;;;38.55;21.38;;;;;;;17.58;100.00;92793.06;5050418;28;20531;-76
2022/08/29 05:14:01;;;;;;;37.05;21.45;;;;;;;17.62;100.00;92793.97;5049213;28;20363;-76
2022/08/29 05:16:29;;;;;;;37.50;20.98;;;;;;;17.65;100.00;92793.34;5049272;28;20056;-76
2022/08/29 05:18:55;;;;;;;32.97;20.20;;;;;;;17.72;100.00;92789.41;5053788;28;20029;-76
2022/08/29 05:21:39;;;;;;;37.00;20.20;;;;;;;17.82;100.00;92792.47;5054268;28;20044;-76
2022/08/29 05:24:07;;;;;;;32.55;20.05;;;;;;;17.92;100.00;92791.28;5052899;28;20037;-76
2022/08/29 05:26:36;;;;;;;33.67;20.25;;;;;;;17.96;100.00;92791.44;5052712;28;20119;-75
2022/08/29 05:29:03;;;;;;;32.97;18.95;;;;;;;18.01;100.00;92794.69;5052707;28;20078;-76
2022/08/29 05:31:29;;;;;;;29.40;18.95;;;;;;;18.12;100.00;92802.22;5054047;28;20033;-76
2022/08/29 05:33:54;;;;;;;25.73;17.58;;;;;;;18.22;99.92;92797.28;5036110;28;20398;-76
2022/08/29 05:36:20;;;;;;;25.13;16.20;;;;;;;18.35;98.90;92794.66;5053895;28;20040;-76
2022/08/29 05:38:46;;;;;;;26.50;15.90;;;;;;;18.44;98.13;92792.72;5035929;28;20041;-76
2022/08/29 05:41:11;;;;;;;32.28;17.13;;;;;;;18.54;97.90;92789.66;5036010;28;20033;-76
2022/08/29 05:43:37;;;;;;;23.70;15.48;;;;;;;18.67;98.07;92788.59;5052602;28;20366;-76
2022/08/29 05:46:07;;;;;;;24.83;15.90;;;;;;;18.82;97.41;92794.38;5053733;28;20090;-76
2022/08/29 05:48:33;;;;;;;20.15;12.63;;;;;;;18.94;95.91;92797.06;5052815;28;20367;-75
2022/08/29 05:51:00;;;;;;;18.73;12.10;;;;;;;19.07;95.40;92795.16;5052741;28;20461;-76
2022/08/29 05:53:26;;;;;;;20.38;11.48;;;;;;;19.18;94.04;92801.59;5047010;28;20483;-76
2022/08/29 05:55:52;;;;;;;18.55;11.38;;;;;;;19.27;93.46;92804.13;5033574;28;20033;-76
2022/08/29 05:58:18;;;;;;;23.30;13.10;;;;;;;19.40;93.72;92803.03;5034927;28;20131;-72
2022/08/29 06:00:46;;;;;;;25.27;13.63;;;;;;;19.54;92.98;92808.78;5033456;28;20037;-72
2022/08/29 06:03:12;;;;;;;18.60;12.15;;;;;;;19.68;92.61;92808.44;5033468;28;20025;-72
2022/08/29 06:05:39;;;;;;;17.27;11.52;;;;;;;19.85;92.08;92811.97;5033376;28;20029;-72
2022/08/29 06:08:06;;;;;;;18.42;11.80;;;;;;;20.00;90.98;92813.16;5031937;28;20042;-73
2022/08/29 06:10:33;;;;;;;15.55;10.85;;;;;;;20.18;90.15;92817.06;5033130;28;20041;-72
2022/08/29 06:12:59;;;;;;;15.27;10.52;;;;;;;20.39;89.08;92820.31;5033168;28;20518;-72
2022/08/29 06:15:27;;;;;;;18.08;11.82;;;;;;;20.50;88.24;92817.94;5033151;28;20045;-72
2022/08/29 06:17:53;;;;;;;16.23;11.00;;;;;;;20.77;88.05;92823.59;5015712;28;20407;-72
2022/08/29 06:20:19;;;;;;;14.43;9.70;;;;;;;21.51;85.09;92829.22;5032370;28;20324;-73
2022/08/29 06:22:45;;;;;;;13.95;9.48;;;;;;;22.08;81.52;92820.91;5033117;28;20483;-77
2022/08/29 06:25:11;;;;;;;11.73;8.38;;;;;;;22.26;80.69;92818.66;5016001;28;20045;-77
2022/08/29 06:27:37;;;;;;;11.98;7.65;;;;;;;22.49;80.08;92830.13;5032408;28;20037;-77
2022/08/29 06:30:03;;;;;;;12.18;7.70;;;;;;;23.02;76.95;92825.03;5031782;28;20046;-77
2022/08/29 06:32:29;;;;;;;11.13;8.20;;;;;;;23.20;76.40;92828.00;5015721;28;20030;-74
2022/08/29 06:34:54;;;;;;;10.32;7.90;;;;;;;23.65;74.24;92825.66;5016151;28;20026;-77
2022/08/29 06:37:20;;;;;;;14.43;8.10;;;;;;;23.75;72.49;92830.38;5032309;28;20033;-77
2022/08/29 06:39:46;;;;;;;13.73;7.68;;;;;;;24.09;72.21;92827.78;5015606;28;20044;-77
2022/08/29 06:42:11;;;;;;;10.73;7.13;;;;;;;24.44;71.02;92827.47;5031749;28;20033;-78
2022/08/29 06:44:38;;;;;;;13.25;7.30;;;;;;;24.60;69.23;92827.31;5031443;28;20034;-76
2022/08/29 06:47:04;;;;;;;12.32;7.35;;;;;;;24.63;70.55;92831.94;5032484;28;20518;-76
2022/08/29 06:49:32;;;;;;;10.07;7.18;;;;;;;24.91;69.13;92834.13;5032298;28;20041;-74
2022/08/29 06:51:58;;;;;;;15.82;6.60;;;;;;;25.20;68.71;92834.44;5031382;28;20021;-76
2022/08/29 06:54:26;;;;;;;11.60;6.88;;;;;;;25.44;66.81;92838.44;5031390;28;20078;-75
2022/08/29 06:56:52;;;;;;;9.25;6.47;;;;;;;25.82;65.14;92835.66;5047885;28;20065;-75
2022/08/29 06:59:18;;;;;;;9.32;6.38;;;;;;;25.49;65.69;92835.44;5047697;28;20122;-75
2022/08/29 07:01:45;;;;;;;10.65;6.60;;;;;;;25.19;67.00;92832.88;5032120;28;20509;-75
2022/08/29 07:04:12;;;;;;;12.07;6.45;;;;;;;25.19;68.19;92832.88;5032419;28;20116;-75
2022/08/29 07:06:38;;;;;;;9.30;6.45;;;;;;;25.17;67.96;92834.38;5032170;28;20072;-75
2022/08/29 07:09:05;;;;;;;10.40;6.35;;;;;;;24.85;68.82;92832.16;5032488;28;20033;-75
2022/08/29 07:11:32;;;;;;;10.80;6.60;;;;;;;24.38;71.68;92833.50;5031878;28;20061;-75
2022/08/29 07:14:01;;;;;;;9.52;6.70;;;;;;;24.10;72.54;92834.69;5031059;28;20033;-75
2022/08/29 07:16:27;;;;;;;9.13;6.50;;;;;;;23.88;71.82;92829.06;5047300;28;20136;-76
2022/08/29 07:18:54;;;;;;;9.15;5.93;;;;;;;23.87;72.70;92830.19;5032045;28;20033;-75
2022/08/29 07:21:21;;;;;;;11.50;6.30;;;;;;;23.54;73.64;92828.16;5032263;28;20044;-75
2022/08/29 07:23:48;;;;;;;9.88;5.95;;;;;;;24.12;71.55;92832.44;5029731;28;20041;-75
2022/08/29 07:26:25;;;;;;;8.95;5.90;;;;;;;24.05;71.02;92835.03;5030547;28;20040;-75
2022/08/29 07:28:53;;;;;;;20.13;6.28;;;;;;;23.87;71.76;92840.88;5037700;28;20500;-75
2022/08/29 07:31:19;;;;;;;8.10;5.97;;;;;;;23.88;73.67;92837.06;5051710;28;20039;-74
2022/08/29 07:33:45;;;;;;;9.52;6.35;;;;;;;23.68;73.86;92843.63;5049220;28;20399;-74
2022/08/29 07:36:11;;;;;;;8.82;6.07;;;;;;;23.22;74.54;92846.34;5031961;28;20498;-74
2022/08/29 07:38:38;;;;;;;9.52;5.93;;;;;;;22.98;75.75;92845.53;5030578;28;20041;-75
2022/08/29 07:41:06;;;;;;;8.85;6.00;;;;;;;22.86;76.13;92846.47;5031664;28;20065;-75
2022/08/29 07:43:32;;;;;;;7.47;5.32;;;;;;;22.76;75.90;92852.38;5031274;28;20052;-74
2022/08/29 07:45:58;;;;;;;10.23;6.40;;;;;;;22.63;75.33;92849.09;5037484;28;20108;-75
2022/08/29 07:48:25;;;;;;;11.18;5.85;;;;;;;22.62;76.97;92852.88;5030355;28;20052;-74
2022/08/29 07:50:51;;;;;;;10.68;6.00;;;;;;;22.80;76.07;92852.44;5030317;28;20087;-75
2022/08/29 07:53:17;;;;;;;9.23;6.00;;;;;;;22.83;75.94;92851.72;5013837;28;20017;-75
2022/08/29 07:55:43;;;;;;;8.45;6.32;;;;;;;22.97;75.95;92845.91;5029801;28;20453;-75
2022/08/29 07:58:09;;;;;;;8.75;6.25;;;;;;;23.27;74.56;92848.72;5031231;28;20033;-75
2022/08/29 08:00:35;;;;;;;11.15;6.75;;;;;;;23.45;74.27;92854.34;5030207;28;20068;-75
2022/08/29 08:03:00;;;;;;;9.80;6.53;;;;;;;23.34;73.24;92859.50;5030233;28;20029;-75
2022/08/29 08:05:26;;;;;;;11.35;6.22;;;;;;;23.59;73.48;92848.44;4997321;28;20136;-76
2022/08/29 08:07:52;;;;;;;10.30;5.95;;;;;;;23.57;73.27;92850.72;5031364;28;20033;-75
2022/08/29 08:10:19;;;;;;;11.70;6.80;;;;;;;23.49;71.53;92857.84;5031373;28;20033;-75
2022/08/29 08:12:50;;;;;;;9.38;6.55;;;;;;;23.19;74.10;92866.53;5030868;28;20041;-76
2022/08/29 08:15:16;;;;;;;11.20;7.00;;;;;;;23.30;73.52;92869.34;5030253;28;20390;-75
2022/08/29 08:17:42;;;;;;;8.05;5.93;;;;;;;23.66;71.86;92864.59;5030971;28;20311;-75
2022/08/29 08:20:10;;;;;;;8.07;6.38;;;;;;;23.67;71.83;92872.25;5031334;28;20120;-75
2022/08/29 08:22:36;;;;;;;8.20;5.95;;;;;;;23.83;71.86;92871.38;5016421;28;20052;-75
2022/08/29 08:25:03;;;;;;;9.48;6.72;;;;;;;24.27;68.91;92871.63;5026519;28;20488;-75
2022/08/29 08:27:29;;;;;;;7.88;5.53;;;;;;;23.98;70.58;92869.66;5026213;28;20053;-75
2022/08/29 08:29:55;;;;;;;10.73;6.50;;;;;;;24.24;70.23;92876.91;5030991;28;20541;-76
2022/08/29 08:32:20;;;;;;;7.32;5.60;;;;;;;24.06;69.35;92882.00;5029047;28;20464;-75
2022/08/29 08:34:46;;;;;;;8.45;5.57;;;;;;;24.01;70.64;92885.00;5030843;28;20399;-75
2022/08/29 08:37:12;;;;;;;9.20;5.90;;;;;;;24.07;69.68;92884.34;5030767;28;20116;-75
2022/08/29 08:39:38;;;;;;;9.50;6.78;;;;;;;23.93;69.30;92886.03;5046646;28;20029;-75
2022/08/29 08:42:37;;;;;;;10.50;6.35;;;;;;;23.69;70.97;92885.28;5030657;28;20037;-75
2022/08/29 08:45:05;;;;;;;11.88;7.10;;;;;;;23.97;68.30;92881.50;5027366;28;20049;-75
2022/08/29 08:47:35;;;;;;;9.82;5.97;;;;;;;24.11;68.22;92879.00;5029257;28;20056;-75
2022/08/29 08:50:22;;;;;;;9.80;6.90;;;;;;;24.00;67.50;92888.78;5034845;28;20076;-74
2022/08/29 08:52:58;;;;;;;9.05;6.55;;;;;;;24.10;68.39;92888.94;5032422;28;20032;-74
2022/08/29 08:55:30;;;;;;;8.43;6.10;;;;;;;24.13;68.72;92892.81;5049969;28;20091;-74
2022/08/29 08:58:22;;;;;;;10.13;6.95;;;;;;;23.47;70.78;92894.84;5033380;28;20491;-75
2022/08/29 09:00:56;;;;;;;10.25;6.88;;;;;;;23.06;72.54;92897.97;5033372;28;20040;-77
2022/08/29 09:03:47;;;;;;;12.00;6.18;;;;;;;23.31;73.05;92892.28;5033463;28;20048;-74
2022/08/29 09:06:28;;;;;;;8.32;5.80;;;;;;;23.45;71.54;92897.84;5001193;28;20050;-74
2022/08/29 09:09:04;;;;;;;10.25;6.97;;;;;;;23.35;70.83;92893.13;5013220;28;20123;-73
2022/08/29 09:11:44;;;;;;;9.43;5.63;;;;;;;23.41;72.34;92894.34;5029641;28;20045;-74
2022/08/29 09:14:45;;;;;;;9.38;6.50;;;;;;;23.13;72.75;92897.31;5014433;28;20388;-76
2022/08/29 09:17:20;;;;;;;11.57;6.88;;;;;;;23.18;71.89;92899.69;5011143;28;20057;-76
2022/08/29 09:19:47;;;;;;;8.50;6.15;;;;;;;23.34;69.89;92896.91;5014523;28;20423;-74
2022/08/29 09:22:22;;;;;;;9.25;6.20;;;;;;;23.85;68.88;92895.84;5026508;28;20021;-75
2022/08/29 09:24:53;;;;;;;7.75;5.90;;;;;;;24.05;66.32;92897.28;5033819;28;20395;-75
2022/08/29 09:27:22;;;;;;;11.13;5.80;;;;;;;24.43;66.06;92895.50;5031844;28;20067;-76
2022/08/29 09:30:00;;;;;;;8.00;6.03;;;;;;;24.38;64.68;92893.13;5033955;28;20337;-73
2022/08/29 09:32:25;;;;;;;8.32;5.30;;;;;;;24.44;63.54;92891.69;5032774;28;20037;-73
2022/08/29 09:34:51;;;;;;;8.20;5.20;;;;;;;24.50;64.11;92886.84;5032938;28;20041;-73
2022/08/29 09:37:33;;;;;;;7.95;5.07;;;;;;;24.45;64.59;92887.91;5033936;28;20084;-73
2022/08/29 09:40:17;;;;;;;8.70;5.05;;;;;;;24.58;65.03;92895.72;5034031;28;20602;-73
2022/08/29 09:42:49;;;;;;;8.25;5.57;;;;;;;24.19;63.35;92891.38;5033948;28;20395;-72
2022/08/29 09:45:22;;;;;;;10.32;5.35;;;;;;;24.21;63.18;92891.00;5033905;28;20029;-73
2022/08/29 09:47:48;;;;;;;7.55;5.50;;;;;;;23.97;64.21;92887.63;5016137;28;20461;-72
2022/08/29 09:50:23;;;;;;;7.78;5.35;;;;;;;23.55;65.99;92890.38;5033744;28;20029;-73
2022/08/29 09:52:54;;;;;;;9.65;5.90;;;;;;;24.06;64.20;92884.69;5033893;28;20041;-73
2022/08/29 09:55:43;;;;;;;9.75;5.85;;;;;;;24.29;63.06;92885.38;5033656;28;20029;-73
2022/08/29 09:58:15;;;;;;;10.02;5.30;;;;;;;24.09;64.40;92886.63;5016158;28;20122;-73
2022/08/29 10:00:57;;;;;;;8.75;5.40;;;;;;;24.23;63.13;92883.41;5015774;28;20045;-73
2022/08/29 10:03:24;;;;;;;7.25;5.13;;;;;;;24.04;64.97;92889.63;5031947;28;20332;-73
2022/08/29 10:06:06;;;;;;;7.95;4.78;;;;;;;23.39;61.54;92883.25;5032958;28;20025;-73
2022/08/29 10:08:34;;;;;;;;;;;;;;;23.64;63.44;92881.00;5032825;28;20533;-75
2022/08/29 10:11:03;;;;;;;9.25;4.82;;;;;;;23.61;64.83;92883.59;5032087;28;19924;-75
2022/08/29 10:13:42;;;;;;;9.35;5.00;;;;;;;23.70;64.79;92881.44;5033528;28;20447;-74
2022/08/29 10:16:17;;;;;;;9.55;4.60;;;;;;;24.49;63.23;92878.00;5032299;28;20041;-72
2022/08/29 10:18:51;;;;;;;7.95;4.50;;;;;;;24.92;60.30;92883.84;5032142;28;20687;-73
2022/08/29 10:21:45;;;;;;;8.48;4.88;;;;;;;24.65;60.23;92882.41;5033083;28;20068;-73
2022/08/29 10:24:11;;;;;;;8.07;4.50;;;;;;;24.09;60.51;92875.94;5033080;28;20048;-73
2022/08/29 10:26:49;;;;;;;8.15;4.82;;;;;;;24.26;60.41;92867.38;5032330;28;20029;-72
2022/08/29 10:29:25;;;;;;;6.72;4.85;;;;;;;24.08;63.39;92877.06;5033187;28;20134;-73
2022/08/29 10:32:00;;;;;;;6.78;4.75;;;;;;;24.10;62.57;92866.78;5033171;28;20038;-73
2022/08/29 10:34:47;;;;;;;7.07;4.50;;;;;;;24.55;61.05;92875.03;5031489;28;20030;-73
2022/08/29 10:37:27;;;;;;;10.45;5.18;;;;;;;24.64;62.91;92875.53;5033042;28;20041;-73
2022/08/29 10:39:58;;;;;;;10.68;5.32;;;;;;;24.08;62.15;92874.41;5032960;28;20037;-72
2022/08/29 10:42:25;;;;;;;7.47;5.45;;;;;;;23.90;63.17;92869.56;5031929;28;20072;-73
2022/08/29 10:45:08;;;;;;;7.70;5.35;;;;;;;24.28;63.08;92873.13;5031630;28;20045;-73
2022/08/29 10:47:39;;;;;;;8.25;5.18;;;;;;;24.49;63.34;92875.34;5031655;28;20037;-74
2022/08/29 10:50:45;;;;;;;7.85;5.28;;;;;;;24.87;62.95;92875.41;5032764;28;20068;-74
2022/08/29 10:53:23;;;;;;;9.05;5.15;;;;;;;25.46;60.66;92879.03;4978456;28;20406;-74
2022/08/29 10:55:55;;;;;;;8.07;5.00;;;;;;;26.00;59.72;92868.75;5031214;28;20108;-73
2022/08/29 10:58:40;;;;;;;7.47;5.18;;;;;;;25.34;57.71;92872.06;5031248;28;20241;-72
2022/08/29 11:01:19;;;;;;;8.23;4.50;;;;;;;25.49;57.23;92872.97;5032314;28;20025;-74
2022/08/29 11:04:19;;;;;;;7.15;5.00;;;;;;;25.86;58.47;92861.34;5031311;28;20140;-74
2022/08/29 11:07:06;;;;;;;9.82;5.40;;;;;;;25.59;57.96;92868.81;5032191;28;20038;-73
2022/08/29 11:09:52;;;;;;;7.43;5.47;;;;;;;25.38;59.93;92869.44;5030922;28;20172;-73
2022/08/29 11:12:53;;;;;;;9.70;4.80;;;;;;;25.23;59.64;92876.56;5014205;28;20132;-73
2022/08/29 11:15:26;;;;;;;7.47;5.32;;;;;;;24.85;60.66;92867.72;5029083;28;20622;-73
2022/08/29 11:18:08;;;;;;;9.52;5.40;;;;;;;24.84;60.81;92865.44;5032109;28;20072;-74
2022/08/29 11:20:39;;;;;;;8.73;5.15;;;;;;;24.95;59.22;92874.34;5030753;28;20044;-73
2022/08/29 11:23:23;;;;;;;10.23;4.70;;;;;;;25.79;58.23;92873.97;5031300;28;20565;-74
2022/08/29 11:25:49;;;;;;;8.15;4.80;;;;;;;25.77;58.47;92864.38;5014101;28;20041;-74
2022/08/29 11:28:15;;;;;;;10.00;5.50;;;;;;;25.38;60.23;92866.75;5030662;28;20033;-73
2022/08/29 11:31:05;;;;;;;7.18;4.43;;;;;;;25.80;57.64;92865.53;5032091;28;20025;-73
2022/08/29 11:33:57;;;;;;;7.20;4.40;;;;;;;26.22;58.38;92861.59;5030625;28;20033;-73